createdAt,value
2018-03-27T00:00:54.923Z,4.61
2018-03-27T00:03:23.209Z,4.67
2018-03-27T00:05:51.539Z,4.70
2018-03-27T00:08:20.577Z,4.73
2018-03-27T00:10:48.836Z,4.68
2018-03-27T00:13:17.861Z,4.61
2018-03-27T00:15:46.145Z,4.64
2018-03-27T00:18:15.212Z,4.59
2018-03-27T00:20:43.482Z,4.55
2018-03-27T00:23:11.752Z,4.55
2018-03-27T00:25:40.033Z,4.44
2018-03-27T00:28:26.164Z,4.29
2018-03-27T00:31:12.076Z,4.11
2018-03-27T00:33:58.220Z,4.08
2018-03-27T00:36:45.121Z,4.00
2018-03-27T00:39:31.796Z,3.92
2018-03-27T00:45:03.223Z,3.72
2018-03-27T00:47:31.488Z,3.71
2018-03-27T00:49:59.793Z,3.82
2018-03-27T00:52:28.052Z,3.85
2018-03-27T00:54:57.129Z,3.88
2018-03-27T00:57:26.368Z,3.84
2018-03-27T00:59:55.427Z,3.89
2018-03-27T01:02:23.747Z,4.03
2018-03-27T01:04:52.025Z,3.98
2018-03-27T01:07:20.293Z,3.99
2018-03-27T01:09:48.598Z,4.05
2018-03-27T01:12:16.852Z,3.98
2018-03-27T01:14:45.133Z,4.05
2018-03-27T01:17:13.427Z,4.00
2018-03-27T01:19:41.742Z,3.87
2018-03-27T01:22:10.010Z,3.95
2018-03-27T01:24:38.278Z,3.94
2018-03-27T01:27:06.576Z,3.81
2018-03-27T01:29:35.596Z,3.73
2018-03-27T01:32:03.872Z,3.69
2018-03-27T01:34:32.133Z,3.75
2018-03-27T01:37:00.413Z,3.72
2018-03-27T01:39:28.685Z,3.55
2018-03-27T01:41:56.984Z,3.56
2018-03-27T01:44:25.332Z,3.65
2018-03-27T01:46:54.457Z,3.64
2018-03-27T01:49:23.491Z,3.62
2018-03-27T01:51:51.822Z,3.59
2018-03-27T01:54:20.080Z,3.65
2018-03-27T01:56:48.348Z,3.60
2018-03-27T01:59:16.608Z,3.49
2018-03-27T02:01:44.923Z,3.48
2018-03-27T02:04:13.204Z,3.46
2018-03-27T02:06:42.404Z,3.50
2018-03-27T02:09:10.665Z,3.50
2018-03-27T02:11:44.461Z,3.48
2018-03-27T02:14:18.187Z,3.49
2018-03-27T02:16:52.857Z,3.45
2018-03-27T02:19:26.560Z,3.40
2018-03-27T02:21:54.212Z,3.33
2018-03-27T02:24:24.067Z,3.26
2018-03-27T02:26:52.349Z,3.26
2018-03-27T02:29:20.639Z,3.21
2018-03-27T02:31:48.897Z,3.04
2018-03-27T02:34:17.194Z,3.22
2018-03-27T02:36:46.229Z,3.06
2018-03-27T02:39:14.537Z,3.07
2018-03-27T02:41:42.842Z,3.04
2018-03-27T02:44:11.113Z,2.83
2018-03-27T02:46:39.379Z,2.74
2018-03-27T02:49:07.656Z,2.73
2018-03-27T02:51:36.679Z,2.66
2018-03-27T02:54:04.965Z,2.67
2018-03-27T02:56:33.236Z,2.80
2018-03-27T02:59:02.283Z,2.80
2018-03-27T03:01:30.553Z,2.86
2018-03-27T03:03:58.853Z,2.88
2018-03-27T03:06:27.133Z,2.76
2018-03-27T03:08:55.461Z,2.52
2018-03-27T03:11:23.731Z,2.52
2018-03-27T03:13:52.054Z,2.59
2018-03-27T03:16:20.307Z,2.46
2018-03-27T03:18:48.581Z,2.46
2018-03-27T03:21:16.840Z,2.31
2018-03-27T03:23:45.128Z,2.34
2018-03-27T03:26:13.452Z,2.34
2018-03-27T03:28:41.740Z,2.29
2018-03-27T03:31:10.162Z,2.19
2018-03-27T03:33:39.203Z,2.08
2018-03-27T03:36:07.491Z,2.13
2018-03-27T03:38:35.745Z,2.13
2018-03-27T03:41:04.028Z,2.14
2018-03-27T03:43:32.293Z,2.16
2018-03-27T03:46:00.571Z,2.18
2018-03-27T03:48:29.612Z,2.16
2018-03-27T03:50:57.930Z,2.20
2018-03-27T03:53:26.286Z,2.16
2018-03-27T03:55:54.597Z,2.11
2018-03-27T03:58:22.857Z,2.18
2018-03-27T04:00:51.146Z,2.35
2018-03-27T04:03:19.412Z,2.30
2018-03-27T04:05:48.449Z,2.32
2018-03-27T04:08:17.484Z,2.37
2018-03-27T04:10:45.757Z,2.32
2018-03-27T04:13:14.048Z,2.33
2018-03-27T04:15:43.112Z,2.39
2018-03-27T04:18:12.146Z,2.36
2018-03-27T04:20:40.530Z,2.38
2018-03-27T04:23:08.908Z,2.37
2018-03-27T04:25:37.994Z,2.39
2018-03-27T04:28:07.030Z,2.37
2018-03-27T04:30:36.074Z,2.30
2018-03-27T04:33:04.320Z,2.27
2018-03-27T04:35:33.377Z,2.32
2018-03-27T04:38:01.640Z,2.39
2018-03-27T04:40:29.931Z,2.34
2018-03-27T04:42:58.265Z,2.32
2018-03-27T04:45:26.570Z,2.31
2018-03-27T04:47:55.642Z,2.22
2018-03-27T04:50:23.944Z,2.29
2018-03-27T04:52:52.210Z,2.29
2018-03-27T04:55:20.482Z,2.39
2018-03-27T04:57:48.749Z,2.39
2018-03-27T05:00:17.798Z,2.44
2018-03-27T05:02:46.055Z,2.34
2018-03-27T05:05:14.448Z,2.36
2018-03-27T05:07:42.768Z,2.44
2018-03-27T05:10:11.044Z,2.49
2018-03-27T05:12:39.309Z,2.65
2018-03-27T05:15:07.568Z,2.64
2018-03-27T05:17:35.841Z,2.57
2018-03-27T05:20:04.092Z,2.68
2018-03-27T05:22:32.352Z,2.69
2018-03-27T05:25:01.383Z,2.78
2018-03-27T05:27:30.805Z,2.68
2018-03-27T05:29:59.096Z,2.69
2018-03-27T05:32:27.404Z,2.71
2018-03-27T05:34:55.715Z,2.76
2018-03-27T05:37:24.863Z,2.80
2018-03-27T05:39:53.126Z,2.78
2018-03-27T05:42:21.446Z,2.82
2018-03-27T05:44:49.700Z,2.88
2018-03-27T05:47:17.980Z,2.95
2018-03-27T05:49:46.249Z,2.96
2018-03-27T05:52:14.745Z,3.02
2018-03-27T05:54:43.014Z,3.04
2018-03-27T05:57:11.301Z,3.19
2018-03-27T05:59:39.616Z,3.20
2018-03-27T06:02:07.897Z,3.42
2018-03-27T06:04:36.164Z,3.62
2018-03-27T06:07:04.467Z,3.69
2018-03-27T06:09:32.726Z,3.66
2018-03-27T06:12:01.764Z,3.81
2018-03-27T06:14:30.036Z,3.78
2018-03-27T06:16:58.427Z,3.87
2018-03-27T06:19:27.494Z,4.00
2018-03-27T06:21:55.773Z,4.15
2018-03-27T06:24:24.148Z,4.20
2018-03-27T06:26:52.424Z,4.25
2018-03-27T06:29:20.705Z,4.26
2018-03-27T06:31:48.990Z,4.47
2018-03-27T06:34:17.250Z,4.41
2018-03-27T06:36:46.380Z,4.58
2018-03-27T06:39:14.675Z,4.90
2018-03-27T06:41:42.996Z,4.97
2018-03-27T06:44:12.021Z,4.90
2018-03-27T06:46:40.296Z,5.08
2018-03-27T06:49:08.567Z,5.17
2018-03-27T06:51:36.824Z,5.51
2018-03-27T06:54:05.866Z,5.71
2018-03-27T06:56:34.132Z,5.96
2018-03-27T06:59:02.445Z,6.34
2018-03-27T07:01:30.764Z,6.72
2018-03-27T07:03:59.070Z,7.09
2018-03-27T07:06:28.108Z,7.21
2018-03-27T07:08:56.461Z,7.44
2018-03-27T07:11:24.787Z,7.30
2018-03-27T07:13:53.083Z,7.42
2018-03-27T07:16:21.385Z,7.34
2018-03-27T07:18:49.692Z,7.58
2018-03-27T07:21:18.012Z,7.61
2018-03-27T07:23:46.231Z,7.80
2018-03-27T07:26:14.537Z,7.73
2018-03-27T07:28:42.851Z,7.63
2018-03-27T07:31:11.114Z,7.64
2018-03-27T07:33:39.408Z,7.74
2018-03-27T07:36:07.668Z,7.72
2018-03-27T07:38:36.720Z,7.64
2018-03-27T07:41:05.249Z,7.63
2018-03-27T07:43:33.573Z,7.72
2018-03-27T07:46:01.837Z,7.82
2018-03-27T07:48:30.224Z,7.84
2018-03-27T07:50:58.517Z,7.74
2018-03-27T07:53:26.884Z,8.07
2018-03-27T07:55:56.155Z,8.10
2018-03-27T07:58:24.557Z,7.89
2018-03-27T08:00:52.833Z,8.17
2018-03-27T08:03:21.133Z,8.48
2018-03-27T08:05:49.388Z,8.67
2018-03-27T08:08:18.468Z,9.31
2018-03-27T08:10:46.895Z,9.32
2018-03-27T08:13:15.257Z,9.27
2018-03-27T08:15:43.544Z,9.29
2018-03-27T08:18:11.820Z,9.46
2018-03-27T08:20:40.214Z,9.90
2018-03-27T08:23:08.474Z,9.76
2018-03-27T08:25:36.752Z,9.71
2018-03-27T08:28:04.999Z,9.88
2018-03-27T08:30:33.276Z,10.09
2018-03-27T08:33:01.565Z,10.04
2018-03-27T08:35:29.877Z,10.25
2018-03-27T08:37:58.208Z,10.63
2018-03-27T08:40:26.591Z,10.53
2018-03-27T08:42:54.948Z,9.78
2018-03-27T08:45:24.080Z,9.94
2018-03-27T08:47:52.368Z,10.06
2018-03-27T08:50:21.412Z,10.38
2018-03-27T08:52:49.707Z,10.15
2018-03-27T08:55:17.991Z,10.23
2018-03-27T08:57:46.265Z,9.76
2018-03-27T09:00:14.568Z,9.92
2018-03-27T09:02:42.853Z,11.16
2018-03-27T09:05:11.138Z,12.23
2018-03-27T09:07:39.484Z,11.86
2018-03-27T09:10:08.542Z,10.92
2018-03-27T09:12:36.805Z,10.72
2018-03-27T09:15:05.928Z,10.38
2018-03-27T09:17:34.193Z,10.79
2018-03-27T09:20:03.268Z,10.55
2018-03-27T09:22:31.536Z,10.51
2018-03-27T09:24:59.859Z,10.76
2018-03-27T09:27:28.168Z,10.52
2018-03-27T09:29:57.285Z,10.58
2018-03-27T09:32:26.480Z,10.49
2018-03-27T09:34:55.597Z,10.94
2018-03-27T09:37:24.041Z,10.73
2018-03-27T09:39:52.327Z,11.00
2018-03-27T09:42:20.593Z,11.02
2018-03-27T09:44:48.869Z,10.84
2018-03-27T09:47:17.210Z,11.42
2018-03-27T09:49:46.282Z,11.13
2018-03-27T09:52:14.648Z,10.75
2018-03-27T09:54:43.680Z,11.17
2018-03-27T09:57:12.075Z,11.12
2018-03-27T09:59:40.354Z,11.56
2018-03-27T10:02:09.396Z,11.49
2018-03-27T10:04:37.682Z,10.95
2018-03-27T10:07:06.014Z,11.55
2018-03-27T10:09:35.424Z,12.00
2018-03-27T10:12:03.707Z,11.50
2018-03-27T10:14:31.956Z,10.96
2018-03-27T10:17:00.257Z,11.45
2018-03-27T10:19:28.556Z,11.59
2018-03-27T10:21:56.928Z,11.77
2018-03-27T10:24:26.012Z,11.20
2018-03-27T10:26:54.305Z,11.22
2018-03-27T10:29:22.579Z,11.31
2018-03-27T10:31:50.884Z,11.99
2018-03-27T10:34:19.171Z,11.90
2018-03-27T10:36:47.561Z,11.68
2018-03-27T10:39:15.860Z,11.84
2018-03-27T10:41:44.947Z,11.52
2018-03-27T10:44:14.075Z,11.96
2018-03-27T10:46:42.424Z,11.78
2018-03-27T10:49:10.683Z,11.37
2018-03-27T10:51:39.000Z,10.99
2018-03-27T10:54:08.036Z,11.03
2018-03-27T10:56:37.084Z,11.17
2018-03-27T10:59:05.341Z,11.43
2018-03-27T11:01:33.617Z,11.50
2018-03-27T11:04:03.772Z,11.80
2018-03-27T11:06:32.056Z,12.14
2018-03-27T11:09:00.408Z,12.11
2018-03-27T11:11:29.509Z,13.09
2018-03-27T11:13:57.828Z,12.88
2018-03-27T11:16:26.942Z,13.14
2018-03-27T11:18:55.264Z,12.78
2018-03-27T11:21:23.602Z,12.80
2018-03-27T11:23:51.903Z,12.37
2018-03-27T11:26:20.936Z,12.66
2018-03-27T11:28:49.225Z,11.95
2018-03-27T11:31:17.493Z,11.94
2018-03-27T11:33:46.552Z,11.99
2018-03-27T11:36:14.864Z,11.81
2018-03-27T11:38:43.210Z,11.55
2018-03-27T11:41:11.485Z,11.73
2018-03-27T11:43:39.776Z,11.30
2018-03-27T11:46:09.045Z,11.20
2018-03-27T11:48:37.344Z,11.31
2018-03-27T11:51:05.600Z,11.11
2018-03-27T11:53:34.640Z,11.02
2018-03-27T11:56:02.920Z,10.67
2018-03-27T11:58:31.997Z,10.39
2018-03-27T12:01:00.289Z,10.27
2018-03-27T12:03:29.361Z,10.44
2018-03-27T12:05:58.530Z,9.90
2018-03-27T12:08:26.991Z,9.92
2018-03-27T12:10:55.339Z,9.76
2018-03-27T12:13:23.689Z,9.68
2018-03-27T12:15:51.942Z,9.98
2018-03-27T12:18:20.265Z,10.17
2018-03-27T12:20:49.311Z,10.68
2018-03-27T12:23:17.604Z,11.48
2018-03-27T12:25:45.885Z,11.89
2018-03-27T12:28:14.953Z,12.01
2018-03-27T12:30:44.004Z,11.81
2018-03-27T12:33:12.285Z,12.20
2018-03-27T12:35:40.548Z,12.34
2018-03-27T12:38:08.856Z,12.17
2018-03-27T12:40:37.189Z,12.07
2018-03-27T12:43:06.233Z,12.08
2018-03-27T12:45:35.269Z,11.74
2018-03-27T12:48:03.540Z,12.23
2018-03-27T12:50:31.817Z,12.34
2018-03-27T12:53:00.121Z,12.32
2018-03-27T12:55:29.229Z,13.38
2018-03-27T12:57:57.582Z,13.30
2018-03-27T13:00:25.922Z,13.37
2018-03-27T13:02:55.058Z,14.20
2018-03-27T13:05:23.382Z,14.57
2018-03-27T13:07:51.682Z,14.30
2018-03-27T13:10:20.031Z,14.03
2018-03-27T13:12:48.352Z,14.03
2018-03-27T13:15:16.653Z,13.33
2018-03-27T13:17:45.010Z,13.29
2018-03-27T13:20:13.264Z,13.13
2018-03-27T13:22:42.332Z,13.05
2018-03-27T13:25:10.615Z,13.32
2018-03-27T13:27:38.882Z,13.21
2018-03-27T13:30:07.177Z,13.28
2018-03-27T13:32:35.452Z,13.71
2018-03-27T13:35:04.509Z,13.84
2018-03-27T13:37:32.784Z,14.04
2018-03-27T13:40:01.088Z,13.32
2018-03-27T13:42:29.377Z,13.73
2018-03-27T13:44:57.768Z,13.21
2018-03-27T13:47:26.181Z,13.43
2018-03-27T13:49:54.673Z,13.36
2018-03-27T13:52:23.099Z,13.31
2018-03-27T13:54:51.398Z,12.96
2018-03-27T13:57:19.657Z,13.00
2018-03-27T13:59:47.955Z,13.44
2018-03-27T14:02:16.520Z,13.44
2018-03-27T14:04:44.838Z,13.65
2018-03-27T14:07:13.900Z,13.67
2018-03-27T14:09:42.311Z,13.41
2018-03-27T14:12:10.545Z,13.18
2018-03-27T14:14:39.577Z,13.28
2018-03-27T14:17:07.836Z,13.16
2018-03-27T14:19:37.032Z,13.48
2018-03-27T14:22:05.262Z,12.76
2018-03-27T14:24:33.535Z,12.76
2018-03-27T14:27:01.796Z,12.60
2018-03-27T14:29:30.200Z,12.73
2018-03-27T14:31:58.676Z,12.77
2018-03-27T14:34:27.085Z,12.84
2018-03-27T14:36:55.563Z,13.65
2018-03-27T14:39:23.929Z,13.55
2018-03-27T14:41:53.050Z,13.64
2018-03-27T14:44:22.819Z,13.58
2018-03-27T14:46:51.085Z,13.22
2018-03-27T14:49:20.116Z,13.09
2018-03-27T14:51:48.400Z,13.40
2018-03-27T14:54:17.443Z,13.25
2018-03-27T14:56:45.760Z,13.11
2018-03-27T14:59:14.050Z,12.85
2018-03-27T15:01:42.340Z,12.99
2018-03-27T15:04:10.692Z,12.83
2018-03-27T15:06:39.061Z,12.81
2018-03-27T15:09:08.190Z,12.80
2018-03-27T15:11:36.497Z,12.79
2018-03-27T15:14:04.779Z,12.71
2018-03-27T15:16:33.053Z,12.66
2018-03-27T15:19:01.329Z,12.33
2018-03-27T15:21:30.475Z,12.34
2018-03-27T15:23:58.893Z,12.38
2018-03-27T15:26:27.313Z,12.33
2018-03-27T15:28:56.133Z,12.44
2018-03-27T15:31:24.586Z,12.54
2018-03-27T15:33:53.682Z,12.69
2018-03-27T15:36:22.743Z,12.61
2018-03-27T15:38:51.011Z,12.52
2018-03-27T15:41:20.853Z,12.90
2018-03-27T15:43:49.116Z,12.67
2018-03-27T15:46:18.237Z,12.43
2018-03-27T15:48:47.362Z,12.35
2018-03-27T15:51:15.784Z,12.42
2018-03-27T15:53:44.846Z,12.41
2018-03-27T15:56:13.938Z,12.57
2018-03-27T15:58:43.606Z,12.41
2018-03-27T16:01:12.006Z,12.22
2018-03-27T16:03:40.291Z,12.08
2018-03-27T16:06:09.322Z,11.89
2018-03-27T16:08:37.626Z,11.91
2018-03-27T16:11:05.902Z,11.88
2018-03-27T16:13:34.958Z,11.69
2018-03-27T16:16:04.020Z,11.63
2018-03-27T16:18:32.403Z,11.49
2018-03-27T16:21:00.723Z,11.50
2018-03-27T16:23:29.895Z,11.43
2018-03-27T16:25:58.288Z,11.54
2018-03-27T16:28:26.645Z,11.38
2018-03-27T16:30:55.306Z,11.37
2018-03-27T16:33:23.642Z,11.39
2018-03-27T16:35:52.036Z,11.32
2018-03-27T16:38:20.319Z,11.28
2018-03-27T16:40:49.353Z,11.23
2018-03-27T16:43:17.666Z,11.23
2018-03-27T16:45:46.736Z,11.36
2018-03-27T16:48:15.085Z,11.26
2018-03-27T16:50:43.409Z,11.38
2018-03-27T16:53:12.467Z,11.38
2018-03-27T16:55:40.756Z,11.31
2018-03-27T16:58:09.031Z,11.29
2018-03-27T17:00:38.098Z,11.19
2018-03-27T17:03:06.383Z,11.23
2018-03-27T17:05:34.655Z,11.07
2018-03-27T17:08:03.749Z,11.06
2018-03-27T17:10:32.018Z,11.05
2018-03-27T17:13:00.311Z,10.90
2018-03-27T17:15:28.662Z,10.89
2018-03-27T17:17:57.127Z,10.83
2018-03-27T17:20:26.215Z,10.71
2018-03-27T17:22:54.528Z,10.65
2018-03-27T17:25:23.614Z,10.71
2018-03-27T17:27:51.875Z,10.57
2018-03-27T17:30:20.184Z,10.44
2018-03-27T17:32:49.991Z,10.46
2018-03-27T17:35:19.197Z,10.37
2018-03-27T17:37:48.437Z,10.40
2018-03-27T17:40:16.783Z,10.34
2018-03-27T17:42:45.048Z,10.21
2018-03-27T17:45:14.103Z,10.10
2018-03-27T17:47:42.337Z,9.89
2018-03-27T17:50:11.381Z,9.84
2018-03-27T17:52:39.680Z,9.86
2018-03-27T17:55:07.962Z,9.75
2018-03-27T17:57:36.218Z,9.70
2018-03-27T18:00:05.269Z,9.73
2018-03-27T18:02:33.538Z,9.66
2018-03-27T18:05:01.920Z,9.62
2018-03-27T18:07:30.233Z,9.52
2018-03-27T18:09:58.562Z,9.44
2018-03-27T18:12:26.873Z,9.32
2018-03-27T18:14:56.370Z,9.11
2018-03-27T18:17:24.731Z,9.03
2018-03-27T18:19:53.047Z,8.74
2018-03-27T18:22:21.330Z,8.57
2018-03-27T18:24:49.661Z,8.44
2018-03-27T18:27:18.695Z,8.40
2018-03-27T18:29:47.023Z,8.30
2018-03-27T18:32:15.298Z,8.16
2018-03-27T18:34:43.576Z,8.13
2018-03-27T18:37:11.825Z,8.05
2018-03-27T18:39:43.651Z,7.98
2018-03-27T18:42:12.005Z,7.94
2018-03-27T18:44:40.314Z,7.89
2018-03-27T18:47:08.866Z,7.83
2018-03-27T18:49:37.875Z,7.74
2018-03-27T18:52:06.924Z,7.75
2018-03-27T18:54:35.173Z,7.71
2018-03-27T18:57:04.246Z,7.72
2018-03-27T18:59:32.530Z,7.69
2018-03-27T19:02:00.849Z,7.79
2018-03-27T19:04:29.923Z,7.74
2018-03-27T19:06:58.247Z,7.77
2018-03-27T19:09:26.552Z,7.76
2018-03-27T19:11:54.971Z,7.74
2018-03-27T19:14:23.264Z,7.67
2018-03-27T19:16:52.267Z,7.72
2018-03-27T19:19:20.529Z,7.82
2018-03-27T19:21:48.951Z,7.76
2018-03-27T19:24:17.205Z,7.74
2018-03-27T19:26:46.268Z,7.72
2018-03-27T19:29:14.603Z,7.65
2018-03-27T19:31:42.945Z,7.72
2018-03-27T19:34:11.228Z,7.72
2018-03-27T19:36:39.507Z,7.78
2018-03-27T19:39:07.759Z,7.74
2018-03-27T19:41:36.816Z,7.84
2018-03-27T19:44:05.853Z,7.81
2018-03-27T19:46:34.120Z,7.79
2018-03-27T19:49:02.380Z,7.78
2018-03-27T19:51:30.662Z,7.76
2018-03-27T19:53:58.965Z,7.82
2018-03-27T19:56:27.292Z,7.91
2018-03-27T19:58:55.606Z,7.83
2018-03-27T20:01:24.706Z,7.72
2018-03-27T20:03:52.990Z,7.70
2018-03-27T20:06:22.034Z,7.73
2018-03-27T20:08:50.453Z,7.71
2018-03-27T20:11:18.737Z,7.71
2018-03-27T20:13:47.074Z,7.65
2018-03-27T20:16:15.459Z,7.65
2018-03-27T20:18:43.753Z,7.61
2018-03-27T20:21:12.797Z,7.61
2018-03-27T20:23:41.084Z,7.56
2018-03-27T20:26:10.121Z,7.58
2018-03-27T20:28:38.451Z,7.63
2018-03-27T20:31:06.749Z,7.63
2018-03-27T20:33:35.876Z,7.64
2018-03-27T20:36:04.155Z,7.58
2018-03-27T20:38:33.224Z,7.61
2018-03-27T20:41:01.480Z,7.53
2018-03-27T20:43:29.833Z,7.44
2018-03-27T20:45:58.179Z,7.39
2018-03-27T20:48:26.552Z,7.33
2018-03-27T20:50:54.878Z,7.34
2018-03-27T20:53:23.160Z,7.30
2018-03-27T20:55:52.272Z,7.21
2018-03-27T20:58:20.565Z,7.19
2018-03-27T21:00:50.413Z,7.29
2018-03-27T21:03:18.751Z,7.21
2018-03-27T21:05:47.160Z,7.18
2018-03-27T21:08:15.585Z,7.16
2018-03-27T21:10:44.669Z,7.23
2018-03-27T21:13:13.013Z,7.28
2018-03-27T21:15:42.036Z,7.34
2018-03-27T21:18:10.326Z,7.37
2018-03-27T21:20:39.942Z,7.33
2018-03-27T21:23:08.237Z,7.43
2018-03-27T21:25:36.528Z,7.32
2018-03-27T21:28:04.799Z,7.37
2018-03-27T21:30:34.565Z,7.34
2018-03-27T21:33:03.582Z,7.31
2018-03-27T21:35:32.613Z,7.30
2018-03-27T21:38:00.963Z,7.27
2018-03-27T21:40:29.389Z,7.20
2018-03-27T21:42:57.688Z,7.19
2018-03-27T21:45:26.082Z,7.09
2018-03-27T21:47:55.260Z,7.20
2018-03-27T21:50:23.563Z,7.05
2018-03-27T21:52:51.909Z,7.06
2018-03-27T21:55:20.174Z,7.04
2018-03-27T21:57:49.198Z,6.97
2018-03-27T22:00:17.473Z,6.95
2018-03-27T22:02:46.574Z,6.94
2018-03-27T22:05:15.654Z,6.90
2018-03-27T22:07:43.907Z,6.92
2018-03-27T22:10:12.178Z,6.85
2018-03-27T22:12:40.451Z,6.90
2018-03-27T22:15:09.472Z,6.94
2018-03-27T22:17:37.787Z,6.88
2018-03-27T22:20:06.097Z,6.81
2018-03-27T22:22:34.356Z,6.74
2018-03-27T22:25:02.627Z,6.82
2018-03-27T22:27:31.924Z,6.80
2018-03-27T22:30:01.053Z,6.81
2018-03-27T22:32:30.080Z,6.82
2018-03-27T22:34:58.452Z,6.87
2018-03-27T22:37:27.641Z,6.84
2018-03-27T22:39:56.080Z,6.90
2018-03-27T22:42:24.591Z,6.89
2018-03-27T22:44:52.951Z,6.77
2018-03-27T22:47:21.300Z,6.75
2018-03-27T22:49:49.567Z,6.66
2018-03-27T22:52:17.839Z,6.72
2018-03-27T22:54:46.098Z,6.67
2018-03-27T22:57:14.376Z,6.73
2018-03-27T22:59:42.663Z,6.81
2018-03-27T23:02:11.758Z,6.72
2018-03-27T23:04:40.175Z,6.74
2018-03-27T23:07:09.871Z,6.70
2018-03-27T23:09:38.097Z,6.75
2018-03-27T23:12:06.381Z,6.81
2018-03-27T23:14:34.640Z,6.82
2018-03-27T23:17:03.788Z,6.78
2018-03-27T23:19:32.067Z,6.83
2018-03-27T23:22:00.396Z,6.83
2018-03-27T23:24:29.707Z,6.80
2018-03-27T23:26:58.043Z,6.83
2018-03-27T23:29:26.460Z,6.90
2018-03-27T23:31:55.570Z,6.83
2018-03-27T23:34:23.858Z,6.77
2018-03-27T23:36:52.207Z,6.76
2018-03-27T23:39:21.237Z,6.71
2018-03-27T23:41:50.282Z,6.76
2018-03-27T23:44:18.547Z,6.73
2018-03-27T23:46:46.816Z,6.74
2018-03-27T23:49:15.842Z,6.90
2018-03-27T23:51:44.138Z,6.96
2018-03-27T23:54:12.481Z,6.99
2018-03-27T23:56:40.838Z,7.08
2018-03-27T23:59:09.071Z,7.10
